Time;durP1;ratioP1;P1;durP2;ratioP2;P2;SDS_P1;SDS_P2;PMS_P1;PMS_P2;Temp;Humidity;BMP_temperature;BMP_pressure;BME280_temperature;BME280_humidity;BME280_pressure;Samples;Min_cycle;Max_cycle;Signal;HPM_P1;HPM_P2
2022/05/11 00:01:16;;;;;;;11.85;6.75;;;;;;;;;;4974012;28;20054;-87
2022/05/11 00:03:42;;;;;;;13.23;7.00;;;;;;;;;;4974260;28;20047;-87
2022/05/11 00:06:09;;;;;;;15.00;7.10;;;;;;;;;;4973844;28;20058;-87
2022/05/11 00:08:35;;;;;;;11.73;6.43;;;;;;;;;;4975519;28;20505;-87
2022/05/11 00:11:02;;;;;;;12.85;7.13;;;;;;;;;;4941909;28;20042;-87
2022/05/11 00:13:28;;;;;;;8.95;6.00;;;;;;;;;;4973922;28;20098;-86
2022/05/11 00:15:55;;;;;;;11.90;6.00;;;;;;;;;;4974180;28;20035;-86
2022/05/11 00:18:20;;;;;;;9.93;6.40;;;;;;;;;;4973642;28;20039;-87
2022/05/11 00:20:46;;;;;;;13.10;6.55;;;;;;;;;;4974212;28;20105;-87
2022/05/11 00:23:12;;;;;;;9.45;5.43;;;;;;;;;;4975069;28;20050;-86
2022/05/11 00:25:38;;;;;;;9.75;5.38;;;;;;;;;;4973192;28;20422;-86
2022/05/11 00:28:04;;;;;;;11.38;5.90;;;;;;;;;;4957485;28;20118;-86
2022/05/11 00:30:31;;;;;;;9.63;5.85;;;;;;;;;;4957522;28;20142;-87
2022/05/11 00:32:58;;;;;;;10.68;6.13;;;;;;;;;;4973527;28;20050;-87
2022/05/11 00:35:25;;;;;;;12.90;6.60;;;;;;;;;;4974913;28;20035;-86
2022/05/11 00:37:51;;;;;;;12.48;5.82;;;;;;;;;;4974286;28;20490;-87
2022/05/11 00:40:17;;;;;;;11.02;6.10;;;;;;;;;;4973350;28;20043;-87
2022/05/11 00:42:43;;;;;;;9.63;6.32;;;;;;;;;;4973137;28;20050;-87
2022/05/11 00:45:10;;;;;;;11.70;6.40;;;;;;;;;;4974565;28;20410;-87
2022/05/11 00:47:41;;;;;;;11.43;6.50;;;;;;;;;;4972887;28;20042;-86
2022/05/11 00:50:09;;;;;;;10.50;6.07;;;;;;;;;;4973280;28;20494;-87
2022/05/11 00:52:35;;;;;;;10.65;6.53;;;;;;;;;;4973218;28;20121;-87
2022/05/11 00:55:03;;;;;;;11.55;6.65;;;;;;;;;;4972941;28;20522;-86
2022/05/11 00:57:37;;;;;;;13.20;6.65;;;;;;;;;;4972796;28;20038;-86
2022/05/11 01:00:06;;;;;;;10.40;6.05;;;;;;;;;;4973339;28;20389;-86
2022/05/11 01:02:32;;;;;;;11.38;6.10;;;;;;;;;;4973116;28;20046;-86
2022/05/11 01:05:00;;;;;;;13.73;6.38;;;;;;;;;;4973179;28;20057;-89
2022/05/11 01:07:26;;;;;;;9.20;5.82;;;;;;;;;;4974230;28;20038;-87
2022/05/11 01:09:52;;;;;;;11.35;5.90;;;;;;;;;;4973073;28;20049;-86
2022/05/11 01:12:19;;;;;;;10.52;5.50;;;;;;;;;;4972954;28;20117;-86
2022/05/11 01:14:49;;;;;;;11.23;6.15;;;;;;;;;;4974365;28;20086;-86
2022/05/11 01:17:15;;;;;;;10.13;5.88;;;;;;;;;;4972718;28;20050;-87
2022/05/11 01:19:43;;;;;;;12.10;5.47;;;;;;;;;;4973123;28;20051;-88
2022/05/11 01:22:16;;;;;;;11.32;5.45;;;;;;;;;;4972922;28;20509;-87
2022/05/11 01:24:43;;;;;;;11.48;5.57;;;;;;;;;;4972917;28;20541;-87
2022/05/11 01:27:24;;;;;;;9.98;4.97;;;;;;;;;;4972817;28;20078;-88
2022/05/11 01:29:51;;;;;;;9.57;5.10;;;;;;;;;;4972890;28;20046;-88
2022/05/11 01:32:17;;;;;;;8.45;4.63;;;;;;;;;;4973891;28;20069;-87
2022/05/11 01:34:43;;;;;;;9.18;4.72;;;;;;;;;;4940864;28;20099;-87
2022/05/11 01:37:09;;;;;;;10.98;4.75;;;;;;;;;;4940658;28;20051;-88
2022/05/11 01:39:35;;;;;;;15.80;4.80;;;;;;;;;;4976849;28;20371;-87
2022/05/11 01:42:01;;;;;;;7.93;4.80;;;;;;;;;;4976958;28;20054;-87
2022/05/11 01:44:27;;;;;;;8.15;5.03;;;;;;;;;;4978065;28;20035;-86
2022/05/11 01:46:54;;;;;;;8.57;5.18;;;;;;;;;;4976536;28;20512;-87
2022/05/11 01:49:22;;;;;;;9.05;4.53;;;;;;;;;;4976762;28;20134;-87
2022/05/11 01:51:48;;;;;;;9.68;5.00;;;;;;;;;;4976840;28;20054;-86
2022/05/11 01:54:15;;;;;;;11.07;5.40;;;;;;;;;;4976236;28;20058;-86
2022/05/11 01:56:41;;;;;;;8.50;5.03;;;;;;;;;;4960361;28;20059;-87
2022/05/11 01:59:07;;;;;;;8.95;5.55;;;;;;;;;;4976285;28;20093;-87
2022/05/11 02:01:34;;;;;;;9.70;5.47;;;;;;;;;;4944330;28;20047;-87
2022/05/11 02:04:00;;;;;;;10.10;5.15;;;;;;;;;;4976487;28;20042;-86
2022/05/11 02:09:12;;;;;;;10.07;5.68;;;;;;;;;;4960038;28;20047;-87
2022/05/11 02:11:38;;;;;;;11.25;5.45;;;;;;;;;;4976184;28;20477;-86
2022/05/11 02:14:05;;;;;;;10.80;5.10;;;;;;;;;;4976318;28;20085;-86
2022/05/11 02:16:32;;;;;;;11.48;5.60;;;;;;;;;;4960131;28;20054;-87
2022/05/11 02:18:58;;;;;;;8.85;4.85;;;;;;;;;;4975830;28;20051;-88
2022/05/11 02:21:24;;;;;;;10.02;5.45;;;;;;;;;;4976091;28;20051;-87
2022/05/11 02:23:51;;;;;;;9.48;4.57;;;;;;;;;;4944129;28;20128;-87
2022/05/11 02:26:19;;;;;;;11.70;5.00;;;;;;;;;;4959881;28;20402;-86
2022/05/11 02:28:45;;;;;;;8.95;5.05;;;;;;;;;;4959671;28;20136;-87
2022/05/11 02:31:11;;;;;;;11.43;4.85;;;;;;;;;;4943783;28;20047;-87
2022/05/11 02:33:37;;;;;;;9.02;5.35;;;;;;;;;;4975628;28;20082;-87
2022/05/11 02:36:03;;;;;;;10.02;4.93;;;;;;;;;;4975897;28;20047;-87
2022/05/11 02:38:30;;;;;;;9.88;5.22;;;;;;;;;;4975509;28;20053;-87
2022/05/11 02:40:57;;;;;;;11.23;5.15;;;;;;;;;;4975980;28;20062;-86
2022/05/11 02:43:23;;;;;;;8.93;4.78;;;;;;;;;;4975545;28;20043;-87
2022/05/11 02:45:49;;;;;;;9.18;5.10;;;;;;;;;;4975435;28;20049;-88
2022/05/11 02:48:17;;;;;;;8.70;5.00;;;;;;;;;;4974839;28;20125;-87
2022/05/11 02:50:47;;;;;;;11.30;5.38;;;;;;;;;;4975524;28;20042;-87
2022/05/11 02:53:13;;;;;;;10.95;5.25;;;;;;;;;;4975286;28;20544;-87
2022/05/11 02:55:41;;;;;;;9.48;5.38;;;;;;;;;;4976683;28;20516;-86
2022/05/11 02:58:07;;;;;;;9.30;4.53;;;;;;;;;;4975140;28;20054;-86
2022/05/11 03:00:35;;;;;;;11.77;6.15;;;;;;;;;;4975597;28;20051;-86
2022/05/11 03:03:02;;;;;;;8.52;4.70;;;;;;;;;;4975057;28;20051;-87
2022/05/11 03:05:28;;;;;;;9.57;5.47;;;;;;;;;;4976578;28;20039;-86
2022/05/11 03:07:54;;;;;;;8.45;4.50;;;;;;;;;;4974964;28;20100;-86
2022/05/11 03:10:20;;;;;;;12.45;5.10;;;;;;;;;;4975128;28;20038;-86
2022/05/11 03:12:46;;;;;;;9.52;4.85;;;;;;;;;;4975064;28;20441;-87
2022/05/11 03:15:12;;;;;;;10.13;4.80;;;;;;;;;;4975156;28;20093;-87
2022/05/11 03:17:38;;;;;;;8.68;4.65;;;;;;;;;;4974953;28;20043;-86
2022/05/11 03:20:05;;;;;;;8.45;4.72;;;;;;;;;;4974889;28;20042;-87
2022/05/11 03:22:31;;;;;;;11.45;5.18;;;;;;;;;;4975177;28;20043;-87
2022/05/11 03:24:57;;;;;;;12.60;5.30;;;;;;;;;;4974741;28;20105;-86
2022/05/11 03:27:23;;;;;;;10.32;4.70;;;;;;;;;;4974926;28;20050;-87
2022/05/11 03:29:50;;;;;;;12.52;5.32;;;;;;;;;;4974701;28;20042;-87
2022/05/11 03:35:01;;;;;;;9.45;4.68;;;;;;;;;;4958501;28;20054;-86
2022/05/11 03:37:27;;;;;;;11.23;4.90;;;;;;;;;;4974600;28;20046;-87
2022/05/11 03:39:53;;;;;;;10.25;5.10;;;;;;;;;;4974431;28;20046;-86
2022/05/11 03:42:22;;;;;;;11.07;4.70;;;;;;;;;;4974628;28;20552;-87
2022/05/11 03:44:48;;;;;;;9.68;5.07;;;;;;;;;;4942188;28;20054;-87
2022/05/11 03:47:14;;;;;;;11.98;4.95;;;;;;;;;;4942567;28;20402;-86
2022/05/11 03:49:40;;;;;;;11.45;6.00;;;;;;;;;;4975407;28;20134;-87
2022/05/11 03:52:06;;;;;;;10.40;5.10;;;;;;;;;;4974812;28;20050;-86
2022/05/11 03:54:32;;;;;;;11.15;5.53;;;;;;;;;;4973969;28;20055;-88
2022/05/11 03:56:58;;;;;;;12.65;4.80;;;;;;;;;;4958264;28;20083;-87
2022/05/11 03:59:24;;;;;;;8.65;5.07;;;;;;;;;;4974125;28;20039;-87
2022/05/11 04:01:50;;;;;;;9.30;5.00;;;;;;;;;;4973400;28;20053;-88
2022/05/11 04:04:16;;;;;;;9.93;4.72;;;;;;;;;;4974307;28;20359;-86
2022/05/11 04:06:43;;;;;;;9.48;5.10;;;;;;;;;;4974159;28;20046;-86
2022/05/11 04:09:09;;;;;;;9.52;4.68;;;;;;;;;;4941809;28;20199;-87
2022/05/11 04:11:36;;;;;;;11.45;4.72;;;;;;;;;;4974694;28;20035;-87
2022/05/11 04:14:02;;;;;;;11.77;5.43;;;;;;;;;;4973835;28;20097;-87
2022/05/11 04:16:28;;;;;;;9.57;4.28;;;;;;;;;;4973947;28;20046;-87
2022/05/11 04:18:54;;;;;;;8.50;4.38;;;;;;;;;;4957965;28;20069;-87
2022/05/11 04:21:20;;;;;;;9.40;4.43;;;;;;;;;;4974083;28;20101;-87
2022/05/11 04:23:46;;;;;;;9.75;4.18;;;;;;;;;;4973864;28;20054;-86
2022/05/11 04:26:13;;;;;;;10.70;5.07;;;;;;;;;;4973727;28;20075;-87
2022/05/11 04:28:40;;;;;;;9.57;4.97;;;;;;;;;;4973539;28;20454;-88
2022/05/11 04:31:07;;;;;;;11.85;4.75;;;;;;;;;;4941691;28;20042;-88
2022/05/11 04:33:34;;;;;;;11.18;4.63;;;;;;;;;;4975141;28;20073;-88
2022/05/11 04:36:01;;;;;;;12.20;4.60;;;;;;;;;;4973485;28;20117;-88
2022/05/11 04:38:27;;;;;;;8.95;4.18;;;;;;;;;;4973471;28;20081;-87
2022/05/11 04:40:53;;;;;;;9.95;4.22;;;;;;;;;;4973305;28;20046;-87
2022/05/11 04:43:19;;;;;;;12.85;4.65;;;;;;;;;;4973787;28;20049;-88
2022/05/11 04:45:45;;;;;;;10.63;4.03;;;;;;;;;;4973496;28;20093;-88
2022/05/11 04:48:12;;;;;;;10.57;4.07;;;;;;;;;;4974793;28;20039;-87
2022/05/11 04:50:41;;;;;;;10.35;4.32;;;;;;;;;;4973418;28;20049;-87
2022/05/11 04:53:07;;;;;;;8.68;4.18;;;;;;;;;;4973113;28;20047;-87
2022/05/11 04:55:33;;;;;;;14.70;4.57;;;;;;;;;;4957155;28;20053;-87
2022/05/11 04:57:59;;;;;;;11.15;4.30;;;;;;;;;;4973425;28;20053;-88
2022/05/11 05:00:25;;;;;;;10.07;4.47;;;;;;;;;;4973137;28;20138;-87
2022/05/11 05:02:52;;;;;;;11.07;4.38;;;;;;;;;;4974550;28;20451;-89
2022/05/11 05:05:20;;;;;;;10.45;4.65;;;;;;;;;;4972829;28;20045;-88
2022/05/11 05:07:46;;;;;;;11.27;4.25;;;;;;;;;;4972977;28;20421;-88
2022/05/11 05:10:13;;;;;;;10.98;4.53;;;;;;;;;;4972965;28;20045;-88
2022/05/11 05:12:39;;;;;;;12.30;4.90;;;;;;;;;;4974448;28;20474;-89
2022/05/11 05:15:06;;;;;;;10.57;4.70;;;;;;;;;;4973208;28;20175;-87
2022/05/11 05:17:32;;;;;;;12.32;5.10;;;;;;;;;;4973320;28;20508;-88
2022/05/11 05:19:58;;;;;;;11.07;4.75;;;;;;;;;;4972912;28;20047;-89
2022/05/11 05:22:24;;;;;;;13.55;4.68;;;;;;;;;;4973153;28;20120;-88
2022/05/11 05:24:50;;;;;;;11.02;4.68;;;;;;;;;;4972911;28;20486;-87
2022/05/11 05:27:18;;;;;;;11.48;4.47;;;;;;;;;;4972877;28;20122;-88
2022/05/11 05:32:34;;;;;;;11.47;4.37;;;;;;;;;;4956776;28;20051;-86
2022/05/11 05:35:00;;;;;;;10.93;4.13;;;;;;;;;;4973885;28;20363;-87
2022/05/11 05:37:26;;;;;;;11.77;4.63;;;;;;;;;;4972694;28;20075;-87
2022/05/11 05:39:52;;;;;;;10.00;4.72;;;;;;;;;;4972673;28;20043;-87
2022/05/11 05:42:19;;;;;;;12.40;5.10;;;;;;;;;;4972714;28;20077;-88
2022/05/11 05:44:45;;;;;;;13.93;4.60;;;;;;;;;;4973871;28;20046;-87
2022/05/11 05:47:11;;;;;;;11.30;4.80;;;;;;;;;;4972570;28;20054;-87
2022/05/11 05:49:38;;;;;;;12.02;4.60;;;;;;;;;;4972462;28;20062;-87
2022/05/11 05:52:04;;;;;;;12.88;4.47;;;;;;;;;;4956836;28;20401;-87
2022/05/11 05:54:31;;;;;;;11.70;4.93;;;;;;;;;;4972200;28;20403;-87
2022/05/11 05:56:57;;;;;;;9.48;4.20;;;;;;;;;;4974104;28;20114;-87
2022/05/11 05:59:23;;;;;;;13.15;5.95;;;;;;;;;;4956447;28;20105;-86
2022/05/11 06:01:49;;;;;;;10.45;5.20;;;;;;;;;;4972620;28;20055;-88
2022/05/11 06:04:15;;;;;;;13.40;4.93;;;;;;;;;;4972586;28;20138;-87
2022/05/11 06:06:41;;;;;;;12.48;4.88;;;;;;;;;;4973653;28;20101;-87
2022/05/11 06:09:09;;;;;;;13.20;5.05;;;;;;;;;;4972720;28;20046;-88
2022/05/11 06:11:35;;;;;;;12.30;5.13;;;;;;;;;;4940237;28;20042;-88
2022/05/11 06:14:01;;;;;;;11.75;5.25;;;;;;;;;;4972587;28;20046;-88
2022/05/11 06:16:27;;;;;;;10.93;4.72;;;;;;;;;;4972861;28;20129;-91
2022/05/11 06:18:53;;;;;;;12.40;5.47;;;;;;;;;;4972757;28;20043;-87
2022/05/11 06:21:20;;;;;;;10.27;4.60;;;;;;;;;;4972840;28;20043;-90
2022/05/11 06:23:46;;;;;;;10.77;4.95;;;;;;;;;;4973999;28;20047;-90
2022/05/11 06:26:12;;;;;;;13.30;6.88;;;;;;;;;;4976120;28;20130;-89
2022/05/11 06:28:42;;;;;;;15.30;5.43;;;;;;;;;;4977038;28;20070;-89
2022/05/11 06:31:08;;;;;;;12.45;5.07;;;;;;;;;;4976303;28;20054;-91
2022/05/11 06:33:34;;;;;;;12.52;5.03;;;;;;;;;;4976843;28;20049;-87
2022/05/11 06:36:01;;;;;;;16.17;5.75;;;;;;;;;;4976330;28;20495;-90
2022/05/11 06:38:27;;;;;;;12.07;5.25;;;;;;;;;;4976212;28;20049;-87
2022/05/11 06:40:53;;;;;;;12.90;5.40;;;;;;;;;;4976478;28;20122;-91
2022/05/11 06:43:19;;;;;;;9.35;4.95;;;;;;;;;;4944581;28;20043;-92
2022/05/11 06:45:45;;;;;;;12.45;5.55;;;;;;;;;;4943953;28;20081;-88
2022/05/11 06:48:14;;;;;;;16.48;4.80;;;;;;;;;;4945362;28;20410;-92
2022/05/11 06:50:40;;;;;;;14.80;5.60;;;;;;;;;;4945321;28;20038;-89
2022/05/11 06:53:10;;;;;;;12.00;5.28;;;;;;;;;;4975394;28;20042;-89
2022/05/11 07:01:15;;;;;;;15.75;5.80;;;;;;;;;;4956393;28;20053;-90
2022/05/11 07:03:41;;;;;;;11.07;5.13;;;;;;;;;;4975996;28;20054;-88
2022/05/11 07:06:08;;;;;;;13.10;5.65;;;;;;;;;;4975443;28;20130;-90
2022/05/11 07:08:39;;;;;;;15.48;5.55;;;;;;;;;;4975840;28;20587;-88
2022/05/11 07:13:53;;;;;;;12.60;5.38;;;;;;;;;;4955995;28;20387;-88
2022/05/11 07:16:19;;;;;;;11.40;5.57;;;;;;;;;;4975030;28;20395;-89
2022/05/11 07:18:45;;;;;;;13.95;5.57;;;;;;;;;;4975346;28;20122;-88
2022/05/11 07:21:11;;;;;;;13.45;5.35;;;;;;;;;;4965865;28;20134;-83
2022/05/11 07:23:37;;;;;;;15.40;5.43;;;;;;;;;;4957569;28;20468;-89
2022/05/11 07:26:03;;;;;;;18.13;5.20;;;;;;;;;;4956716;28;20053;-87
2022/05/11 07:28:29;;;;;;;11.30;4.68;;;;;;;;;;4957416;28;20039;-86
2022/05/11 07:30:55;;;;;;;12.85;5.78;;;;;;;;;;4958315;28;20442;-89
2022/05/11 07:33:21;;;;;;;11.48;5.72;;;;;;;;;;4955471;28;20043;-87
2022/05/11 07:35:47;;;;;;;11.98;5.03;;;;;;;;;;4957402;28;20069;-89
2022/05/11 07:38:15;;;;;;;13.48;5.35;;;;;;;;;;4958678;28;20042;-88
2022/05/11 07:40:42;;;;;;;17.50;5.80;;;;;;;;;;4958494;28;20119;-87
2022/05/11 07:43:08;;;;;;;17.00;5.07;;;;;;;;;;4975970;28;20048;-86
2022/05/11 07:45:36;;;;;;;13.48;5.40;;;;;;;;;;4975822;28;20035;-87
2022/05/11 07:48:02;;;;;;;12.63;5.07;;;;;;;;;;4942237;28;20090;-87
2022/05/11 07:50:28;;;;;;;14.85;5.47;;;;;;;;;;4958418;28;20450;-87
2022/05/11 07:52:54;;;;;;;13.77;4.50;;;;;;;;;;4958287;28;20134;-87
2022/05/11 07:55:24;;;;;;;13.40;5.00;;;;;;;;;;4972272;28;20074;-88
2022/05/11 08:00:35;;;;;;;11.40;4.70;;;;;;;;;;4977625;28;20768;-88
2022/05/11 08:03:01;;;;;;;13.18;5.03;;;;;;;;;;4977505;28;20053;-88
2022/05/11 08:05:27;;;;;;;14.20;4.38;;;;;;;;;;4977872;28;20129;-88
2022/05/11 08:07:54;;;;;;;13.45;4.78;;;;;;;;;;4977199;28;20039;-88
2022/05/11 08:10:22;;;;;;;9.35;4.00;;;;;;;;;;4977334;28;20500;-88
2022/05/11 08:12:49;;;;;;;14.40;4.15;;;;;;;;;;4977207;28;20038;-86
2022/05/11 08:15:15;;;;;;;12.85;4.40;;;;;;;;;;4993539;28;20034;-86
2022/05/11 08:17:43;;;;;;;11.18;3.67;;;;;;;;;;4976984;28;20049;-87
2022/05/11 08:20:14;;;;;;;15.90;3.53;;;;;;;;;;4977425;28;20042;-87
2022/05/11 08:22:41;;;;;;;10.02;3.55;;;;;;;;;;4993163;28;20088;-87
2022/05/11 08:25:07;;;;;;;10.75;2.83;;;;;;;;;;4993382;28;20165;-86
2022/05/11 08:27:33;;;;;;;9.50;3.00;;;;;;;;;;4976674;28;20057;-87
2022/05/11 08:35:29;;;;;;;15.43;2.97;;;;;;;;;;4976947;28;20046;-88
2022/05/11 08:37:55;;;;;;;14.30;2.90;;;;;;;;;;4992754;28;20161;-87
2022/05/11 08:40:47;;;;;;;10.73;2.58;;;;;;;;;;4960586;28;20050;-86
2022/05/11 08:43:15;;;;;;;11.38;2.55;;;;;;;;;;4974978;28;20085;-87
2022/05/11 08:46:00;;;;;;;13.25;2.97;;;;;;;;;;4992854;28;20402;-87
2022/05/11 08:48:30;;;;;;;12.48;3.00;;;;;;;;;;4976326;28;20052;-86
2022/05/11 08:50:56;;;;;;;13.15;3.08;;;;;;;;;;4976592;28;20413;-86
2022/05/11 08:53:37;;;;;;;13.30;2.83;;;;;;;;;;4960270;28;20129;-87
2022/05/11 08:56:15;;;;;;;13.85;3.20;;;;;;;;;;4994048;28;20513;-88
2022/05/11 08:58:48;;;;;;;12.15;2.90;;;;;;;;;;4976506;28;20493;-86
2022/05/11 09:01:29;;;;;;;10.45;2.67;;;;;;;;;;4993905;28;20074;-87
2022/05/11 09:03:56;;;;;;;12.20;2.50;;;;;;;;;;4961106;28;20101;-87
2022/05/11 09:06:28;;;;;;;11.88;2.90;;;;;;;;;;4992827;28;20042;-87
2022/05/11 09:08:55;;;;;;;13.48;2.65;;;;;;;;;;4992406;28;20050;-87
2022/05/11 09:11:26;;;;;;;11.60;2.85;;;;;;;;;;4976504;28;20461;-87
2022/05/11 09:13:52;;;;;;;10.80;2.00;;;;;;;;;;4960202;28;20042;-85
2022/05/11 09:16:20;;;;;;;12.82;2.85;;;;;;;;;;4977097;28;20042;-87
2022/05/11 09:18:46;;;;;;;10.20;2.10;;;;;;;;;;4975964;28;20074;-87
2022/05/11 09:21:19;;;;;;;15.52;2.88;;;;;;;;;;4976416;28;20077;-87
2022/05/11 09:23:50;;;;;;;9.65;2.72;;;;;;;;;;4960030;28;20081;-86
2022/05/11 09:26:28;;;;;;;20.02;3.03;;;;;;;;;;4979548;28;20031;-86
2022/05/11 09:28:55;;;;;;;8.38;2.50;;;;;;;;;;4972594;28;20038;-86
2022/05/11 09:31:26;;;;;;;11.98;2.22;;;;;;;;;;4941044;28;20053;-87
2022/05/11 09:33:59;;;;;;;10.55;3.30;;;;;;;;;;4972635;28;20046;-87
2022/05/11 09:36:40;;;;;;;8.15;2.17;;;;;;;;;;4973992;28;20092;-85
2022/05/11 09:39:16;;;;;;;11.68;3.20;;;;;;;;;;4940279;28;20126;-85
2022/05/11 09:41:44;;;;;;;11.38;2.25;;;;;;;;;;4953525;29;20110;-86
2022/05/11 09:44:21;;;;;;;14.20;3.10;;;;;;;;;;4937773;29;20489;-88
2022/05/11 09:46:48;;;;;;;10.48;2.30;;;;;;;;;;4953269;29;20101;-85
2022/05/11 09:49:20;;;;;;;10.23;2.20;;;;;;;;;;4937998;29;20047;-86
2022/05/11 09:51:46;;;;;;;9.07;1.80;;;;;;;;;;4953651;28;20451;-85
2022/05/11 09:54:15;;;;;;;11.07;2.40;;;;;;;;;;4957505;28;20052;-85
2022/05/11 09:56:51;;;;;;;12.60;2.22;;;;;;;;;;4945115;29;20043;-85
2022/05/11 09:59:17;;;;;;;8.88;2.65;;;;;;;;;;4939200;29;20130;-86
2022/05/11 10:01:43;;;;;;;10.85;2.47;;;;;;;;;;4958363;28;20137;-85
2022/05/11 10:04:10;;;;;;;11.30;2.25;;;;;;;;;;4941314;29;20382;-85
2022/05/11 10:06:42;;;;;;;11.32;2.55;;;;;;;;;;4940185;29;20168;-85
2022/05/11 10:09:09;;;;;;;12.82;2.33;;;;;;;;;;4941047;29;20121;-84
2022/05/11 10:11:41;;;;;;;11.60;2.55;;;;;;;;;;4947658;28;20039;-85
2022/05/11 10:22:48;;;;;;;11.13;2.60;;;;;;;;;;4959764;28;20051;-86
2022/05/11 10:25:17;;;;;;;10.88;2.53;;;;;;;;;;4960025;28;20050;-87
2022/05/11 10:27:46;;;;;;;13.70;2.67;;;;;;;;;;4959625;28;20043;-87
2022/05/11 10:30:23;;;;;;;9.23;1.55;;;;;;;;;;4959838;28;20050;-86
2022/05/11 10:32:55;;;;;;;9.23;1.77;;;;;;;;;;4958621;28;20545;-86
2022/05/11 10:35:21;;;;;;;7.50;1.73;;;;;;;;;;4960535;28;20046;-86
2022/05/11 10:38:02;;;;;;;8.98;1.48;;;;;;;;;;4958554;28;20513;-86
2022/05/11 10:40:48;;;;;;;13.35;2.00;;;;;;;;;;4959661;28;20039;-86
2022/05/11 10:43:13;;;;;;;;;;;;;;;;;;4977369;28;20098;-86
2022/05/11 10:45:39;;;;;;;9.82;1.77;;;;;;;;;;4959589;28;19918;-86
2022/05/11 10:48:36;;;;;;;7.72;1.52;;;;;;;;;;4943237;28;20053;-86
2022/05/11 10:51:07;;;;;;;6.13;1.20;;;;;;;;;;4959612;28;20090;-86
2022/05/11 10:53:47;;;;;;;8.70;1.60;;;;;;;;;;4959348;28;20130;-87
2022/05/11 10:56:23;;;;;;;9.80;2.38;;;;;;;;;;4959888;28;20073;-88
2022/05/11 10:58:54;;;;;;;10.13;2.55;;;;;;;;;;4959109;28;20035;-87
2022/05/11 11:01:22;;;;;;;11.75;2.45;;;;;;;;;;4959441;28;20375;-87
2022/05/11 11:04:07;;;;;;;8.48;1.40;;;;;;;;;;4976286;28;20050;-86
2022/05/11 11:09:25;;;;;;;9.60;1.40;;;;;;;;;;4976102;28;20434;-87
2022/05/11 11:12:27;;;;;;;10.40;1.40;;;;;;;;;;4976282;28;20042;-86
2022/05/11 11:14:56;;;;;;;5.78;0.98;;;;;;;;;;4901041;29;20068;-86
2022/05/11 11:17:23;;;;;;;8.88;1.75;;;;;;;;;;4964477;28;20494;-87
2022/05/11 11:19:52;;;;;;;6.82;1.98;;;;;;;;;;4959071;28;20093;-87
2022/05/11 11:22:18;;;;;;;7.13;1.48;;;;;;;;;;4942639;28;20062;-88
2022/05/11 11:25:04;;;;;;;7.70;1.08;;;;;;;;;;4976340;28;20082;-88
2022/05/11 11:27:49;;;;;;;6.22;1.20;;;;;;;;;;4976463;28;20442;-86
2022/05/11 11:30:16;;;;;;;6.63;1.27;;;;;;;;;;4976330;28;20139;-88
2022/05/11 11:33:01;;;;;;;8.13;1.40;;;;;;;;;;4974733;28;20039;-87
2022/05/11 11:35:27;;;;;;;8.35;1.27;;;;;;;;;;4974677;28;20041;-85
2022/05/11 11:38:01;;;;;;;6.03;1.17;;;;;;;;;;4974591;28;20043;-87
2022/05/11 11:40:29;;;;;;;8.10;1.60;;;;;;;;;;4974985;28;20097;-88
2022/05/11 11:42:55;;;;;;;6.20;1.40;;;;;;;;;;4975836;28;20126;-89
2022/05/11 11:45:28;;;;;;;5.05;1.17;;;;;;;;;;4974595;28;20042;-87
2022/05/11 11:48:01;;;;;;;5.97;1.35;;;;;;;;;;4974501;28;20371;-85
2022/05/11 11:50:43;;;;;;;8.13;1.23;;;;;;;;;;4974843;28;20047;-86
2022/05/11 11:53:21;;;;;;;6.47;1.13;;;;;;;;;;4974259;28;20043;-87
2022/05/11 11:55:48;;;;;;;6.97;1.52;;;;;;;;;;4975686;28;20047;-86
2022/05/11 11:58:20;;;;;;;10.63;1.63;;;;;;;;;;4974369;28;20042;-89
2022/05/11 12:00:46;;;;;;;15.98;1.73;;;;;;;;;;4958822;28;20055;-91
2022/05/11 12:03:23;;;;;;;7.53;1.65;;;;;;;;;;4974907;28;20109;-88
2022/05/11 12:05:54;;;;;;;10.80;1.77;;;;;;;;;;4974737;28;20479;-89
2022/05/11 12:16:52;;;;;;;7.53;1.63;;;;;;;;;;4958365;28;20109;-90
2022/05/11 12:19:19;;;;;;;14.07;2.05;;;;;;;;;;4974440;28;20089;-90
2022/05/11 12:21:56;;;;;;;7.32;1.30;;;;;;;;;;4973581;28;20056;-92
2022/05/11 12:24:30;;;;;;;7.43;1.30;;;;;;;;;;4974437;28;20046;-91
2022/05/11 12:26:58;;;;;;;7.25;1.20;;;;;;;;;;4975288;28;20482;-88
2022/05/11 12:32:09;;;;;;;7.45;1.40;;;;;;;;;;4959289;28;20106;-89
2022/05/11 12:34:46;;;;;;;8.48;1.45;;;;;;;;;;4974961;28;20459;-89
2022/05/11 12:37:22;;;;;;;10.95;1.50;;;;;;;;;;4942794;28;20042;-90
2022/05/11 12:39:54;;;;;;;8.45;1.90;;;;;;;;;;4974297;28;20054;-89
2022/05/11 12:42:46;;;;;;;9.98;1.55;;;;;;;;;;4974484;28;20047;-89
2022/05/11 12:45:14;;;;;;;6.30;1.35;;;;;;;;;;4972141;28;20450;-89
2022/05/11 12:47:44;;;;;;;7.70;1.48;;;;;;;;;;4974023;28;20047;-89
2022/05/11 12:50:15;;;;;;;8.50;1.60;;;;;;;;;;4973806;28;20043;-90
2022/05/11 12:52:41;;;;;;;7.82;1.73;;;;;;;;;;4974097;28;20042;-90
2022/05/11 12:55:07;;;;;;;7.72;1.40;;;;;;;;;;4941799;28;20442;-91
2022/05/11 12:57:35;;;;;;;10.00;1.63;;;;;;;;;;4971753;28;20049;-88
2022/05/11 13:00:01;;;;;;;7.95;1.80;;;;;;;;;;4973347;28;20047;-88
2022/05/11 13:02:32;;;;;;;9.93;1.95;;;;;;;;;;4973637;28;20051;-92
2022/05/11 13:05:03;;;;;;;7.85;1.60;;;;;;;;;;4973788;28;20478;-89
2022/05/11 13:07:49;;;;;;;9.85;1.73;;;;;;;;;;4973610;28;20122;-90
2022/05/11 13:10:18;;;;;;;7.78;1.42;;;;;;;;;;4974122;28;20074;-91
2022/05/11 13:12:50;;;;;;;12.98;1.88;;;;;;;;;;4973968;28;20035;-91
2022/05/11 13:15:29;;;;;;;12.32;2.00;;;;;;;;;;4941560;28;20043;-90
2022/05/11 13:17:55;;;;;;;6.60;1.42;;;;;;;;;;4973681;28;20053;-91
2022/05/11 13:20:23;;;;;;;8.43;1.90;;;;;;;;;;4941451;28;20046;-91
2022/05/11 13:22:53;;;;;;;13.88;2.08;;;;;;;;;;4973432;28;20046;-92
2022/05/11 13:25:37;;;;;;;9.18;1.95;;;;;;;;;;4973239;28;20046;-89
2022/05/11 13:28:14;;;;;;;12.98;2.42;;;;;;;;;;4973548;28;20090;-92
2022/05/11 13:30:44;;;;;;;11.52;2.05;;;;;;;;;;4973158;28;20039;-91
2022/05/11 13:33:25;;;;;;;13.00;2.38;;;;;;;;;;4973475;28;20122;-91
2022/05/11 13:36:24;;;;;;;8.10;2.00;;;;;;;;;;4973160;28;20090;-91
2022/05/11 13:38:50;;;;;;;9.82;2.13;;;;;;;;;;4936828;28;20145;-91
2022/05/11 13:41:19;;;;;;;13.65;1.88;;;;;;;;;;4972972;28;20134;-91
2022/05/11 13:43:49;;;;;;;13.27;2.10;;;;;;;;;;4941367;28;20598;-90
2022/05/11 13:46:35;;;;;;;9.68;1.63;;;;;;;;;;4940620;28;20043;-88
2022/05/11 13:49:18;;;;;;;10.80;1.95;;;;;;;;;;4973497;28;20043;-91
2022/05/11 13:51:44;;;;;;;11.05;1.98;;;;;;;;;;4973015;28;20038;-88
2022/05/11 13:54:21;;;;;;;11.05;2.38;;;;;;;;;;4940880;28;20106;-92
2022/05/11 13:57:08;;;;;;;10.30;2.00;;;;;;;;;;4973503;28;20047;-90
2022/05/11 13:59:44;;;;;;;9.60;2.10;;;;;;;;;;4972847;28;20053;-88
2022/05/11 14:02:11;;;;;;;10.32;1.80;;;;;;;;;;4941243;28;20438;-89
2022/05/11 14:04:38;;;;;;;10.02;1.50;;;;;;;;;;4940844;28;20074;-89
2022/05/11 14:07:04;;;;;;;8.02;1.92;;;;;;;;;;4972762;28;20106;-89
2022/05/11 14:09:32;;;;;;;10.63;2.10;;;;;;;;;;4972510;28;20130;-90
2022/05/11 14:11:58;;;;;;;9.10;1.98;;;;;;;;;;4956370;28;20043;-88
2022/05/11 14:14:24;;;;;;;13.20;2.40;;;;;;;;;;4972464;28;20372;-89
2022/05/11 14:16:51;;;;;;;13.07;1.80;;;;;;;;;;4940776;28;20042;-91
2022/05/11 14:19:17;;;;;;;10.50;1.90;;;;;;;;;;4940728;28;20070;-90
2022/05/11 14:21:44;;;;;;;14.68;2.33;;;;;;;;;;4972402;28;20043;-90
2022/05/11 14:24:10;;;;;;;9.65;1.50;;;;;;;;;;4956389;28;20038;-89
2022/05/11 14:26:37;;;;;;;10.52;1.88;;;;;;;;;;4940799;28;20178;-89
2022/05/11 14:29:03;;;;;;;10.88;2.50;;;;;;;;;;4972235;28;20075;-90
2022/05/11 14:31:28;;;;;;;10.70;1.92;;;;;;;;;;4972107;28;20085;-90
2022/05/11 14:33:54;;;;;;;10.82;1.90;;;;;;;;;;4972545;28;20497;-89
2022/05/11 14:36:21;;;;;;;13.77;2.30;;;;;;;;;;4940598;28;20031;-89
2022/05/11 14:38:47;;;;;;;9.48;1.70;;;;;;;;;;4972978;28;20155;-89
2022/05/11 14:41:13;;;;;;;10.32;1.60;;;;;;;;;;4972846;28;20042;-90
2022/05/11 14:43:39;;;;;;;9.98;1.77;;;;;;;;;;4972872;28;20451;-92
2022/05/11 14:46:10;;;;;;;13.57;2.53;;;;;;;;;;4975328;28;20513;-89
2022/05/11 14:48:37;;;;;;;8.88;1.90;;;;;;;;;;4976193;28;20122;-89
2022/05/11 14:51:09;;;;;;;7.38;1.85;;;;;;;;;;4976210;28;20046;-91
2022/05/11 14:53:35;;;;;;;9.88;2.00;;;;;;;;;;4942753;28;20054;-89
2022/05/11 14:56:01;;;;;;;14.60;1.90;;;;;;;;;;4975872;28;20076;-90
2022/05/11 15:04:06;;;;;;;9.55;1.88;;;;;;;;;;4977263;28;20051;-90
2022/05/11 15:06:34;;;;;;;10.43;2.10;;;;;;;;;;4975803;28;20046;-90
2022/05/11 15:09:00;;;;;;;10.95;2.13;;;;;;;;;;4975717;28;20039;-89
2022/05/11 15:14:10;;;;;;;13.95;2.17;;;;;;;;;;4959690;28;20047;-89
2022/05/11 15:16:40;;;;;;;10.30;1.80;;;;;;;;;;4975635;28;20046;-91
2022/05/11 15:19:06;;;;;;;8.45;1.70;;;;;;;;;;4943791;28;20051;-90
2022/05/11 15:21:32;;;;;;;13.35;2.22;;;;;;;;;;4975489;28;20049;-89
2022/05/11 15:23:58;;;;;;;8.95;1.58;;;;;;;;;;4975818;28;20461;-91
2022/05/11 15:26:24;;;;;;;10.95;1.90;;;;;;;;;;4976586;28;20058;-90
2022/05/11 15:28:51;;;;;;;13.63;2.38;;;;;;;;;;4975681;28;20043;-93
2022/05/11 15:31:17;;;;;;;8.50;1.30;;;;;;;;;;4944111;28;20038;-89
2022/05/11 15:33:44;;;;;;;12.15;2.58;;;;;;;;;;4975413;28;20049;-89
2022/05/11 15:36:10;;;;;;;10.43;1.58;;;;;;;;;;4975417;28;20042;-91
2022/05/11 15:38:37;;;;;;;13.85;2.10;;;;;;;;;;4975588;28;20446;-91
2022/05/11 15:41:07;;;;;;;11.88;1.65;;;;;;;;;;4975485;28;20039;-90